Pagrindinis puslapis
METAR-TAF:

METAR-TAF

Oro uostai :

Honningsvåg, Norvegija

platuma: 71-01N, ilguma: 025-59E, Aukštis: 1 m

Dabartinis oras

Ataskaita buvo paskelbta 4 valandos ir 39 minutes, ne 11:50 UTC
Vėjas 20 kt iš Rytų su gūsio iki 30 kt
Temperatūra 0°C
Drėgmė 80%
Slėgis 979 hPa
Matomumas 10 km arba daugiau
Su prošvaistėmis ne aukštis 1800 ft
Liūtis kaimynystėje

METAR: ENHV 061150Z 08020G30KT 9999 VCSH BKN018 00/M03 Q0979

Laikas: 17:29 (16:29 UTC)


TAF: trūkstamas

Orai ataskaitas ir orų prognozės (METAR, TAF).

turimą stotys yra geltonos ir raudonos taškus žemėlapyje.

Perkelti pele per norėdami pamatyti stoties vardą.

Tada spustelėkite, norėdami matyti oro stebėjimo ir prognozės.

Norėdami pakeisti žemėlapį: spustelėkite ant žalios mygtukų su juodo kryžiaus žemyn,; žalią mygtuką su brūkšneliu, jei norite nutolinti; arba žalių rodyklių gretimoms žemėlapius.


METAR-TAF: